Historyczne dane pomiarowe

Dodano dane terminowe – wersja testowa.

Dane z okresu 1951-2019

Wersja bazy: 1.34 [2019-03-16, lista zmian], aktualizacja planowana na 2019-04-15

Dane meteo z obszaru Polski uzyskane na podstawie danych udostępnionych przez Instytut Meteorologii i Gospodarki Wodnej – Państwowy Instytut Badawczy.

 

Wybierz Datę:    

       

TemperaturaWilgotnośćWiatrCiśnienieOpadyŚniegCzas trwania zjawisk
 Stacja t tx tn tng RH VA  wxwx mslp ppp RRR   cm mm wxwxwxwxwxwxwx
1983-08-14 13.6 18.5 9.3 5.9-- 3.3 2.3---- 0.0------------
1983-08-13 16.2 22.4 12.7 13.4-- 7.0 4.7---- 3.2------------
1983-08-12 20.6 27.0 13.0 10.2-- 2.0 1.0---- 0.3------------
1983-08-11 19.2 26.7 14.2 11.4-- 3.0 1.7---- 0.0------------
1983-08-10 19.7 26.4 13.9 10.8-- 2.0 0.3---- 0.0------------
1983-08-09 18.0 24.5 14.8 12.3-- 3.7 1.0---- 0.1------------
1983-08-08 17.2 21.0 14.5 12.6-- 8.0 2.0---- 2.5------------
1983-08-07 15.2 17.0 13.2 11.8-- 8.0 1.7---- 1.5------------
1983-08-06 14.4 19.7 10.4 8.2-- 6.3 2.0---- 0.0------------
1983-08-05 12.4 16.2 9.3 7.9-- 6.3 5.0---- 0.0------------
1983-08-04 11.5 13.5 11.0 10.8-- 8.0 3.7---- 0.3------------
1983-08-03 16.2 20.0 13.2 13.6-- 8.0 4.3---- 0.8------------
1983-08-02 20.0 26.0 18.3 14.9-- 6.0 0.7---- 9.5------------
1983-08-01 21.5 31.7 10.3 7.3-- 0.0 1.3---- 0.0------------
1983-07-31 18.6 26.5 9.3 6.4-- 0.0 0.3---- 0.0------------
1983-07-30 19.6 25.5 16.2 15.6-- 3.0 3.0---- 0.0------------
1983-07-29 20.0 25.0 15.4 14.0-- 6.0 4.0---- 2.9------------
1983-07-28 24.4 28.4 21.3 18.5-- 5.3 3.0---- 0.0------------
1983-07-27 23.5 34.6 12.0 9.6-- 1.0 0.0---- 0.0------------
1983-07-26 20.2 29.6 10.3 7.9-- 0.0 1.3---- 0.0------------
1983-07-25 16.0 23.0 10.3 8.5-- 3.7 1.3---- 0.0------------
1983-07-24 18.4 25.0 11.4 8.0-- 2.7 3.3---- 2.8------------
1983-07-23 18.4 24.7 14.1 13.9-- 4.0 2.7---- 0.0------------
1983-07-22 13.5 16.6 9.3 6.5-- 8.0 3.0---- 0.7------------
1983-07-21 13.6 17.7 10.8 9.5-- 3.7 3.3---- 0.0------------
1983-07-20 16.3 25.8 12.9 14.3-- 5.3 2.3---- 0.4------------
1983-07-19 23.4 29.4 17.7 15.0-- 1.7 1.7---- 12.0------------
1983-07-18 22.9 32.5 14.2 12.0-- 0.0 1.0---- 2.4------------
1983-07-17 21.4 28.0 13.7 11.8-- 1.3 1.3---- 0.0------------
1983-07-16 20.6 29.0 12.9 10.4-- 1.7 1.3---- 1.4------------
1983-07-15 19.8 25.5 14.1 10.8-- 0.7 1.3---- 0.0------------
1983-07-14 17.7 22.2 15.7 14.9-- 4.7 5.3---- 0.0------------
1983-07-13 20.3 27.0 16.9 15.7-- 3.3 2.3---- 5.5------------
1983-07-12 20.2 26.7 16.4 13.9-- 6.3 1.3---- 11.5------------
1983-07-11 19.5 26.1 17.6 13.7-- 6.7 1.0---- 7.1------------
1983-07-10 21.9 30.0 14.2 11.2-- 1.7 0.3---- 0.0------------
1983-07-09 20.6 29.0 11.3 8.5-- 0.7 1.0---- 0.0------------
1983-07-08 21.3 28.5 13.1 10.3-- 0.0 1.0---- 0.0------------
1983-07-07 22.8 29.7 13.7 11.3-- 1.0 0.3---- 0.0------------
1983-07-06 20.8 29.4 12.3 10.2-- 0.3 0.3---- 0.0------------
1983-07-05 20.4 27.0 12.6 11.5-- 0.7 0.3---- 0.0------------
1983-07-04 20.6 27.3 13.0 10.6-- 2.7 0.7---- 0.0------------
1983-07-03 18.8 25.2 13.0 10.4-- 2.3 1.3---- 0.0------------
1983-07-02 18.7 22.7 15.5 14.2-- 4.7 2.3---- 0.0------------
1983-07-01 18.5 26.5 10.3 7.5-- 3.3 1.7---- 0.0------------
1983-06-30 16.7 23.6 7.6 7.5-- 0.0 0.3---- 0.0------------
1983-06-29 14.2 19.8 7.3 4.9-- 3.7 2.0---- 0.0------------
1983-06-28 16.0 21.5 14.5 14.4-- 6.7 2.0---- 0.0------------
1983-06-27 20.4 26.0 16.2 14.4-- 4.3 2.3---- 29.4------------
1983-06-26 20.0 26.4 15.2 13.4-- 4.3 0.7---- 0.0------------
1983-06-25 21.5 27.5 14.1 11.3-- 1.0 4.3---- 9.1------------
1983-06-24 16.6 25.0 6.0 3.7-- 0.0 0.7---- 0.0------------
1983-06-23 15.3 22.5 5.1 2.7-- 0.0 1.7---- 0.0------------
1983-06-22 16.6 22.8 12.5 9.3-- 1.0 1.7---- 0.0------------
1983-06-21 19.6 26.0 12.4 9.0-- 1.3 2.0---- 0.0------------
1983-06-20 17.6 22.2 13.7 13.9-- 6.7 1.3---- 0.0------------
1983-06-19 13.7 15.7 12.0 11.8-- 8.0 4.7---- 1.8------------
1983-06-18 11.6 14.5 8.8 8.3-- 8.0 4.7---- 2.8------------
1983-06-17 11.6 15.4 9.5 8.2-- 8.0 3.0---- 0.4------------
1983-06-16 11.7 15.2 8.8 8.3-- 8.0 5.7---- 0.0------------
252.9 ms

 

Źródłem pochodzenia danych jest Instytut Meteorologii i Gospodarki Wodnej – Państwowy Instytut Badawczy. Dane Instytutu Meteorologii i Gospodarki Wodnej – Państwowego Instytutu Badawczego zostały przetworzone.

Dane źródłowe można odnaleźć na stronie https://dane.imgw.pl